sensor_id;sensor_type;location;lat;lon;timestamp;temperature;humidity
50586;DHT22;36542;51.700;8.846;2024-02-14T00:00:37;5.80;99.90
50586;DHT22;36542;51.700;8.846;2024-02-14T00:03:03;5.80;99.90
50586;DHT22;36542;51.700;8.846;2024-02-14T00:05:28;5.90;99.90
50586;DHT22;36542;51.700;8.846;2024-02-14T00:07:54;6.00;99.90
50586;DHT22;36542;51.700;8.846;2024-02-14T00:10:20;6.00;99.90
50586;DHT22;36542;51.700;8.846;2024-02-14T00:12:46;6.00;99.90
50586;DHT22;36542;51.700;8.846;2024-02-14T00:15:12;6.00;99.90
50586;DHT22;36542;51.700;8.846;2024-02-14T00:17:38;6.10;99.90
50586;DHT22;36542;51.700;8.846;2024-02-14T00:20:04;6.10;99.90
50586;DHT22;36542;51.700;8.846;2024-02-14T00:22:31;6.00;99.90
50586;DHT22;36542;51.700;8.846;2024-02-14T00:24:57;6.10;99.90
50586;DHT22;36542;51.700;8.846;2024-02-14T00:27:22;6.10;99.90
50586;DHT22;36542;51.700;8.846;2024-02-14T00:29:49;6.10;99.90
50586;DHT22;36542;51.700;8.846;2024-02-14T00:32:15;6.10;99.90
50586;DHT22;36542;51.700;8.846;2024-02-14T00:34:41;6.10;99.90
50586;DHT22;36542;51.700;8.846;2024-02-14T00:37:06;6.00;99.90
50586;DHT22;36542;51.700;8.846;2024-02-14T00:39:32;6.00;99.90
50586;DHT22;36542;51.700;8.846;2024-02-14T00:41:58;6.10;99.90
50586;DHT22;36542;51.700;8.846;2024-02-14T00:44:23;6.10;99.90
50586;DHT22;36542;51.700;8.846;2024-02-14T00:46:49;6.10;99.90
50586;DHT22;36542;51.700;8.846;2024-02-14T00:49:15;6.10;99.90
50586;DHT22;36542;51.700;8.846;2024-02-14T00:51:40;6.20;99.90
50586;DHT22;36542;51.700;8.846;2024-02-14T00:54:06;6.20;99.90
50586;DHT22;36542;51.700;8.846;2024-02-14T00:56:32;6.20;99.90
50586;DHT22;36542;51.700;8.846;2024-02-14T00:58:58;6.20;99.90
50586;DHT22;36542;51.700;8.846;2024-02-14T01:01:23;6.30;99.90
50586;DHT22;36542;51.700;8.846;2024-02-14T01:03:49;6.30;99.90
50586;DHT22;36542;51.700;8.846;2024-02-14T01:06:15;6.30;99.90
50586;DHT22;36542;51.700;8.846;2024-02-14T01:08:41;6.20;99.90
50586;DHT22;36542;51.700;8.846;2024-02-14T01:11:07;6.20;99.90
50586;DHT22;36542;51.700;8.846;2024-02-14T01:13:35;6.30;99.90
50586;DHT22;36542;51.700;8.846;2024-02-14T01:16:00;6.30;99.90
50586;DHT22;36542;51.700;8.846;2024-02-14T01:18:26;6.20;99.90
50586;DHT22;36542;51.700;8.846;2024-02-14T01:20:51;6.30;99.90
50586;DHT22;36542;51.700;8.846;2024-02-14T01:23:17;6.40;99.90
50586;DHT22;36542;51.700;8.846;2024-02-14T01:25:42;6.40;99.90
50586;DHT22;36542;51.700;8.846;2024-02-14T01:28:09;6.30;99.90
50586;DHT22;36542;51.700;8.846;2024-02-14T01:30:35;6.40;99.90
50586;DHT22;36542;51.700;8.846;2024-02-14T01:33:01;6.40;99.90
50586;DHT22;36542;51.700;8.846;2024-02-14T01:35:29;6.30;99.90
50586;DHT22;36542;51.700;8.846;2024-02-14T01:37:55;6.40;99.90
50586;DHT22;36542;51.700;8.846;2024-02-14T01:40:20;6.50;99.90
50586;DHT22;36542;51.700;8.846;2024-02-14T01:42:46;6.50;99.90
50586;DHT22;36542;51.700;8.846;2024-02-14T01:45:13;6.60;99.90
50586;DHT22;36542;51.700;8.846;2024-02-14T01:47:38;6.70;99.90
50586;DHT22;36542;51.700;8.846;2024-02-14T01:50:07;6.80;99.90
50586;DHT22;36542;51.700;8.846;2024-02-14T01:52:39;6.80;99.90
50586;DHT22;36542;51.700;8.846;2024-02-14T01:55:06;6.80;99.90
50586;DHT22;36542;51.700;8.846;2024-02-14T01:57:33;6.90;99.90
50586;DHT22;36542;51.700;8.846;2024-02-14T02:00:00;6.90;99.90
50586;DHT22;36542;51.700;8.846;2024-02-14T02:02:33;7.00;99.90
50586;DHT22;36542;51.700;8.846;2024-02-14T02:04:59;6.90;99.90
50586;DHT22;36542;51.700;8.846;2024-02-14T02:07:24;6.90;99.90
50586;DHT22;36542;51.700;8.846;2024-02-14T02:09:50;6.90;99.90
50586;DHT22;36542;51.700;8.846;2024-02-14T02:12:16;6.80;99.90
50586;DHT22;36542;51.700;8.846;2024-02-14T02:14:42;6.80;99.90
50586;DHT22;36542;51.700;8.846;2024-02-14T02:17:07;6.70;99.90
50586;DHT22;36542;51.700;8.846;2024-02-14T02:19:35;6.70;99.90
50586;DHT22;36542;51.700;8.846;2024-02-14T02:22:01;6.80;99.90
50586;DHT22;36542;51.700;8.846;2024-02-14T02:24:27;6.80;99.90
50586;DHT22;36542;51.700;8.846;2024-02-14T02:26:52;6.80;99.90
50586;DHT22;36542;51.700;8.846;2024-02-14T02:29:19;6.80;99.90
50586;DHT22;36542;51.700;8.846;2024-02-14T02:31:46;6.80;99.90
50586;DHT22;36542;51.700;8.846;2024-02-14T02:34:11;6.80;99.90
50586;DHT22;36542;51.700;8.846;2024-02-14T02:36:38;6.80;99.90
50586;DHT22;36542;51.700;8.846;2024-02-14T02:39:04;6.70;99.90
50586;DHT22;36542;51.700;8.846;2024-02-14T02:41:30;6.80;99.90
50586;DHT22;36542;51.700;8.846;2024-02-14T02:43:57;6.90;99.90
50586;DHT22;36542;51.700;8.846;2024-02-14T02:46:23;7.00;99.90
50586;DHT22;36542;51.700;8.846;2024-02-14T02:48:49;7.00;99.90
50586;DHT22;36542;51.700;8.846;2024-02-14T02:51:17;6.90;99.90
50586;DHT22;36542;51.700;8.846;2024-02-14T02:53:43;7.00;99.90
50586;DHT22;36542;51.700;8.846;2024-02-14T02:56:09;7.00;99.90
50586;DHT22;36542;51.700;8.846;2024-02-14T02:58:34;7.00;99.90
50586;DHT22;36542;51.700;8.846;2024-02-14T03:01:00;7.00;99.90
50586;DHT22;36542;51.700;8.846;2024-02-14T03:03:26;7.10;99.90
50586;DHT22;36542;51.700;8.846;2024-02-14T03:05:53;7.10;99.90
50586;DHT22;36542;51.700;8.846;2024-02-14T03:08:20;7.20;99.90
50586;DHT22;36542;51.700;8.846;2024-02-14T03:10:47;7.20;99.90
50586;DHT22;36542;51.700;8.846;2024-02-14T03:13:12;7.20;99.90
50586;DHT22;36542;51.700;8.846;2024-02-14T03:15:38;7.20;99.90
50586;DHT22;36542;51.700;8.846;2024-02-14T03:18:04;7.20;99.90
50586;DHT22;36542;51.700;8.846;2024-02-14T03:20:35;7.20;99.90
50586;DHT22;36542;51.700;8.846;2024-02-14T03:23:01;7.30;99.90
50586;DHT22;36542;51.700;8.846;2024-02-14T03:25:28;7.30;99.90
50586;DHT22;36542;51.700;8.846;2024-02-14T03:27:54;7.30;99.90
50586;DHT22;36542;51.700;8.846;2024-02-14T03:30:22;7.30;99.90
50586;DHT22;36542;51.700;8.846;2024-02-14T03:32:49;7.40;99.90
50586;DHT22;36542;51.700;8.846;2024-02-14T03:35:14;7.40;99.90
50586;DHT22;36542;51.700;8.846;2024-02-14T03:37:41;7.40;99.90
50586;DHT22;36542;51.700;8.846;2024-02-14T03:40:08;7.50;99.90
50586;DHT22;36542;51.700;8.846;2024-02-14T03:42:35;7.40;99.90
50586;DHT22;36542;51.700;8.846;2024-02-14T03:45:01;7.50;99.90
50586;DHT22;36542;51.700;8.846;2024-02-14T03:47:34;7.50;99.90
50586;DHT22;36542;51.700;8.846;2024-02-14T03:50:00;7.50;99.90
50586;DHT22;36542;51.700;8.846;2024-02-14T03:52:27;7.50;99.90
50586;DHT22;36542;51.700;8.846;2024-02-14T03:54:53;7.50;99.90
50586;DHT22;36542;51.700;8.846;2024-02-14T03:57:18;7.60;99.90
50586;DHT22;36542;51.700;8.846;2024-02-14T03:59:44;7.60;99.90
50586;DHT22;36542;51.700;8.846;2024-02-14T04:02:10;7.60;99.90
50586;DHT22;36542;51.700;8.846;2024-02-14T04:04:37;7.70;99.90
50586;DHT22;36542;51.700;8.846;2024-02-14T04:07:03;7.80;99.90
50586;DHT22;36542;51.700;8.846;2024-02-14T04:09:28;7.90;99.90
50586;DHT22;36542;51.700;8.846;2024-02-14T04:11:54;7.90;99.90
50586;DHT22;36542;51.700;8.846;2024-02-14T04:14:20;7.90;99.90
50586;DHT22;36542;51.700;8.846;2024-02-14T04:17:01;7.90;99.90
50586;DHT22;36542;51.700;8.846;2024-02-14T04:19:27;8.00;99.90
50586;DHT22;36542;51.700;8.846;2024-02-14T04:21:53;7.90;99.90
50586;DHT22;36542;51.700;8.846;2024-02-14T04:24:19;8.00;99.90
50586;DHT22;36542;51.700;8.846;2024-02-14T04:26:45;8.00;99.90
50586;DHT22;36542;51.700;8.846;2024-02-14T04:29:10;8.00;99.90
50586;DHT22;36542;51.700;8.846;2024-02-14T04:31:36;8.00;99.90
50586;DHT22;36542;51.700;8.846;2024-02-14T04:34:02;8.10;99.90
50586;DHT22;36542;51.700;8.846;2024-02-14T04:36:28;8.10;99.90
50586;DHT22;36542;51.700;8.846;2024-02-14T04:38:56;8.10;99.90
50586;DHT22;36542;51.700;8.846;2024-02-14T04:41:22;8.10;99.90
50586;DHT22;36542;51.700;8.846;2024-02-14T04:43:48;8.10;99.90
50586;DHT22;36542;51.700;8.846;2024-02-14T04:46:14;8.10;99.90
50586;DHT22;36542;51.700;8.846;2024-02-14T04:48:39;8.10;99.90
50586;DHT22;36542;51.700;8.846;2024-02-14T04:51:05;8.10;99.90
50586;DHT22;36542;51.700;8.846;2024-02-14T04:53:31;8.10;99.90
50586;DHT22;36542;51.700;8.846;2024-02-14T04:55:57;8.10;99.90
50586;DHT22;36542;51.700;8.846;2024-02-14T04:58:23;8.10;99.90
50586;DHT22;36542;51.700;8.846;2024-02-14T05:00:49;8.10;99.90
50586;DHT22;36542;51.700;8.846;2024-02-14T05:03:15;8.10;99.90
50586;DHT22;36542;51.700;8.846;2024-02-14T05:05:41;8.20;99.90
50586;DHT22;36542;51.700;8.846;2024-02-14T05:08:07;8.10;99.90
50586;DHT22;36542;51.700;8.846;2024-02-14T05:10:32;8.20;99.90
50586;DHT22;36542;51.700;8.846;2024-02-14T05:12:58;8.20;99.90
50586;DHT22;36542;51.700;8.846;2024-02-14T05:15:24;8.20;99.90
50586;DHT22;36542;51.700;8.846;2024-02-14T05:17:50;8.30;99.90
50586;DHT22;36542;51.700;8.846;2024-02-14T05:20:16;8.30;99.90
50586;DHT22;36542;51.700;8.846;2024-02-14T05:22:42;8.40;99.90
50586;DHT22;36542;51.700;8.846;2024-02-14T05:25:08;8.50;99.90
50586;DHT22;36542;51.700;8.846;2024-02-14T05:27:35;8.40;99.90
50586;DHT22;36542;51.700;8.846;2024-02-14T05:30:01;8.40;99.90
50586;DHT22;36542;51.700;8.846;2024-02-14T05:32:26;8.40;99.90
50586;DHT22;36542;51.700;8.846;2024-02-14T05:34:52;8.40;99.90
50586;DHT22;36542;51.700;8.846;2024-02-14T05:37:18;8.30;99.90
50586;DHT22;36542;51.700;8.846;2024-02-14T05:39:43;8.40;99.90
50586;DHT22;36542;51.700;8.846;2024-02-14T05:42:09;8.30;99.90
50586;DHT22;36542;51.700;8.846;2024-02-14T05:44:34;8.30;99.90
50586;DHT22;36542;51.700;8.846;2024-02-14T05:47:00;8.40;99.90
50586;DHT22;36542;51.700;8.846;2024-02-14T05:49:25;8.40;99.90
50586;DHT22;36542;51.700;8.846;2024-02-14T05:51:51;8.40;99.90
50586;DHT22;36542;51.700;8.846;2024-02-14T05:54:19;8.40;99.90
50586;DHT22;36542;51.700;8.846;2024-02-14T05:56:45;8.40;99.90
50586;DHT22;36542;51.700;8.846;2024-02-14T05:59:11;8.40;99.90
50586;DHT22;36542;51.700;8.846;2024-02-14T06:01:37;8.40;99.90
50586;DHT22;36542;51.700;8.846;2024-02-14T06:04:02;8.50;99.90
50586;DHT22;36542;51.700;8.846;2024-02-14T06:06:28;8.50;99.90
50586;DHT22;36542;51.700;8.846;2024-02-14T06:08:54;8.50;99.90
50586;DHT22;36542;51.700;8.846;2024-02-14T06:11:20;8.50;99.90
50586;DHT22;36542;51.700;8.846;2024-02-14T06:13:49;8.50;99.90
50586;DHT22;36542;51.700;8.846;2024-02-14T06:16:15;8.50;99.90
50586;DHT22;36542;51.700;8.846;2024-02-14T06:18:40;8.50;99.90
50586;DHT22;36542;51.700;8.846;2024-02-14T06:21:06;8.40;99.90
50586;DHT22;36542;51.700;8.846;2024-02-14T06:23:32;8.40;99.90
50586;DHT22;36542;51.700;8.846;2024-02-14T06:25:58;8.40;99.90
50586;DHT22;36542;51.700;8.846;2024-02-14T06:28:23;8.40;99.90
50586;DHT22;36542;51.700;8.846;2024-02-14T06:30:49;8.40;99.90
50586;DHT22;36542;51.700;8.846;2024-02-14T06:33:15;8.60;99.90
50586;DHT22;36542;51.700;8.846;2024-02-14T06:35:41;8.50;99.90
50586;DHT22;36542;51.700;8.846;2024-02-14T06:38:06;8.50;99.90
50586;DHT22;36542;51.700;8.846;2024-02-14T06:40:32;8.50;99.90
50586;DHT22;36542;51.700;8.846;2024-02-14T06:42:58;8.50;99.90
50586;DHT22;36542;51.700;8.846;2024-02-14T06:45:25;8.50;99.90
50586;DHT22;36542;51.700;8.846;2024-02-14T06:47:51;8.50;99.90
50586;DHT22;36542;51.700;8.846;2024-02-14T06:50:17;8.50;99.90
50586;DHT22;36542;51.700;8.846;2024-02-14T06:52:42;8.50;99.90
50586;DHT22;36542;51.700;8.846;2024-02-14T06:55:08;8.50;99.90
50586;DHT22;36542;51.700;8.846;2024-02-14T06:57:33;8.60;99.90
50586;DHT22;36542;51.700;8.846;2024-02-14T06:59:59;8.60;99.90
50586;DHT22;36542;51.700;8.846;2024-02-14T07:02:25;8.60;99.90
50586;DHT22;36542;51.700;8.846;2024-02-14T07:04:53;8.70;99.90
50586;DHT22;36542;51.700;8.846;2024-02-14T07:07:19;8.80;99.90
50586;DHT22;36542;51.700;8.846;2024-02-14T07:09:45;8.80;99.90
50586;DHT22;36542;51.700;8.846;2024-02-14T07:12:11;8.80;99.90
50586;DHT22;36542;51.700;8.846;2024-02-14T07:14:36;8.90;99.90
50586;DHT22;36542;51.700;8.846;2024-02-14T07:17:02;8.90;99.90
50586;DHT22;36542;51.700;8.846;2024-02-14T07:19:28;8.90;99.90
50586;DHT22;36542;51.700;8.846;2024-02-14T07:21:53;8.90;99.90
50586;DHT22;36542;51.700;8.846;2024-02-14T07:24:19;8.90;99.90
50586;DHT22;36542;51.700;8.846;2024-02-14T07:26:44;9.00;99.90
50586;DHT22;36542;51.700;8.846;2024-02-14T07:29:11;9.00;99.90
50586;DHT22;36542;51.700;8.846;2024-02-14T07:31:37;9.00;99.90
50586;DHT22;36542;51.700;8.846;2024-02-14T07:34:02;9.00;99.90
50586;DHT22;36542;51.700;8.846;2024-02-14T07:36:31;9.00;99.90
50586;DHT22;36542;51.700;8.846;2024-02-14T07:38:57;9.00;99.90
50586;DHT22;36542;51.700;8.846;2024-02-14T07:41:23;9.00;99.90
50586;DHT22;36542;51.700;8.846;2024-02-14T07:43:49;9.00;99.90
50586;DHT22;36542;51.700;8.846;2024-02-14T07:46:20;9.10;99.90
50586;DHT22;36542;51.700;8.846;2024-02-14T07:48:48;9.10;99.90
50586;DHT22;36542;51.700;8.846;2024-02-14T07:51:14;9.10;99.90
50586;DHT22;36542;51.700;8.846;2024-02-14T07:53:39;9.10;99.90
50586;DHT22;36542;51.700;8.846;2024-02-14T07:56:05;9.20;99.90
50586;DHT22;36542;51.700;8.846;2024-02-14T07:58:31;9.20;99.90
50586;DHT22;36542;51.700;8.846;2024-02-14T08:00:56;9.20;99.90
50586;DHT22;36542;51.700;8.846;2024-02-14T08:03:22;9.20;99.90
50586;DHT22;36542;51.700;8.846;2024-02-14T08:05:48;9.20;99.90
50586;DHT22;36542;51.700;8.846;2024-02-14T08:08:14;9.20;99.90
50586;DHT22;36542;51.700;8.846;2024-02-14T08:10:39;9.20;99.90
50586;DHT22;36542;51.700;8.846;2024-02-14T08:13:05;9.20;99.90
50586;DHT22;36542;51.700;8.846;2024-02-14T08:15:30;9.20;99.90
50586;DHT22;36542;51.700;8.846;2024-02-14T08:17:56;9.20;99.90
50586;DHT22;36542;51.700;8.846;2024-02-14T08:20:22;9.20;99.90
50586;DHT22;36542;51.700;8.846;2024-02-14T08:22:49;9.30;99.90
50586;DHT22;36542;51.700;8.846;2024-02-14T08:25:15;9.30;99.90
50586;DHT22;36542;51.700;8.846;2024-02-14T08:27:41;9.30;99.90
50586;DHT22;36542;51.700;8.846;2024-02-14T08:30:07;9.30;99.90
50586;DHT22;36542;51.700;8.846;2024-02-14T08:32:34;9.30;99.90
50586;DHT22;36542;51.700;8.846;2024-02-14T08:34:59;9.20;99.90
50586;DHT22;36542;51.700;8.846;2024-02-14T08:37:26;9.30;99.90
50586;DHT22;36542;51.700;8.846;2024-02-14T08:39:52;9.30;99.90
50586;DHT22;36542;51.700;8.846;2024-02-14T08:42:18;9.30;99.90
50586;DHT22;36542;51.700;8.846;2024-02-14T08:44:44;9.30;99.90
50586;DHT22;36542;51.700;8.846;2024-02-14T08:47:10;9.40;99.90
50586;DHT22;36542;51.700;8.846;2024-02-14T08:49:35;9.40;99.90
50586;DHT22;36542;51.700;8.846;2024-02-14T08:52:01;9.50;99.90
50586;DHT22;36542;51.700;8.846;2024-02-14T08:54:27;9.50;99.90
50586;DHT22;36542;51.700;8.846;2024-02-14T08:56:54;9.50;99.90
50586;DHT22;36542;51.700;8.846;2024-02-14T08:59:21;9.50;99.90
50586;DHT22;36542;51.700;8.846;2024-02-14T09:01:47;9.50;99.90
50586;DHT22;36542;51.700;8.846;2024-02-14T09:04:13;9.50;99.90
50586;DHT22;36542;51.700;8.846;2024-02-14T09:06:39;9.50;99.90
50586;DHT22;36542;51.700;8.846;2024-02-14T09:09:06;9.50;99.90
50586;DHT22;36542;51.700;8.846;2024-02-14T09:11:32;9.50;99.90
50586;DHT22;36542;51.700;8.846;2024-02-14T09:13:58;9.60;99.90
50586;DHT22;36542;51.700;8.846;2024-02-14T09:16:30;9.60;99.90
50586;DHT22;36542;51.700;8.846;2024-02-14T09:18:56;9.50;99.90
50586;DHT22;36542;51.700;8.846;2024-02-14T09:21:22;9.50;99.90
50586;DHT22;36542;51.700;8.846;2024-02-14T09:23:47;9.40;99.90
50586;DHT22;36542;51.700;8.846;2024-02-14T09:26:13;9.40;99.90
50586;DHT22;36542;51.700;8.846;2024-02-14T09:28:42;9.30;99.90
50586;DHT22;36542;51.700;8.846;2024-02-14T09:31:08;9.20;99.90
50586;DHT22;36542;51.700;8.846;2024-02-14T09:33:36;9.20;99.90
50586;DHT22;36542;51.700;8.846;2024-02-14T09:36:02;9.30;99.90
50586;DHT22;36542;51.700;8.846;2024-02-14T09:38:29;9.40;99.90
50586;DHT22;36542;51.700;8.846;2024-02-14T09:41:00;9.40;99.90
50586;DHT22;36542;51.700;8.846;2024-02-14T09:43:38;9.50;99.90
50586;DHT22;36542;51.700;8.846;2024-02-14T09:46:07;9.60;99.90
50586;DHT22;36542;51.700;8.846;2024-02-14T09:48:34;9.50;99.90
50586;DHT22;36542;51.700;8.846;2024-02-14T09:51:00;9.60;99.90
50586;DHT22;36542;51.700;8.846;2024-02-14T09:53:26;9.60;99.90
50586;DHT22;36542;51.700;8.846;2024-02-14T09:55:54;9.60;99.90
50586;DHT22;36542;51.700;8.846;2024-02-14T09:58:20;9.70;99.90
50586;DHT22;36542;51.700;8.846;2024-02-14T10:00:46;9.80;99.90
50586;DHT22;36542;51.700;8.846;2024-02-14T10:03:12;9.90;99.90
50586;DHT22;36542;51.700;8.846;2024-02-14T10:05:38;10.00;99.90
50586;DHT22;36542;51.700;8.846;2024-02-14T10:08:04;10.00;99.90
50586;DHT22;36542;51.700;8.846;2024-02-14T10:10:32;10.00;99.90
50586;DHT22;36542;51.700;8.846;2024-02-14T10:13:03;10.00;99.90
50586;DHT22;36542;51.700;8.846;2024-02-14T10:15:31;10.10;99.90
50586;DHT22;36542;51.700;8.846;2024-02-14T10:17:59;10.10;99.90
50586;DHT22;36542;51.700;8.846;2024-02-14T10:20:25;10.10;99.90
50586;DHT22;36542;51.700;8.846;2024-02-14T10:22:59;10.10;99.90
50586;DHT22;36542;51.700;8.846;2024-02-14T10:25:25;10.20;99.90
50586;DHT22;36542;51.700;8.846;2024-02-14T10:27:51;10.20;99.90
50586;DHT22;36542;51.700;8.846;2024-02-14T10:30:16;10.20;99.90
50586;DHT22;36542;51.700;8.846;2024-02-14T10:32:42;10.20;99.90
50586;DHT22;36542;51.700;8.846;2024-02-14T10:35:13;10.20;99.90
50586;DHT22;36542;51.700;8.846;2024-02-14T10:37:39;10.30;99.90
50586;DHT22;36542;51.700;8.846;2024-02-14T10:40:06;10.40;99.90
50586;DHT22;36542;51.700;8.846;2024-02-14T10:42:32;10.40;99.90
50586;DHT22;36542;51.700;8.846;2024-02-14T10:45:02;10.40;99.90
50586;DHT22;36542;51.700;8.846;2024-02-14T10:47:35;10.40;99.90
50586;DHT22;36542;51.700;8.846;2024-02-14T10:50:03;10.40;99.90
50586;DHT22;36542;51.700;8.846;2024-02-14T10:52:34;10.40;99.90
50586;DHT22;36542;51.700;8.846;2024-02-14T10:55:02;10.50;99.90
50586;DHT22;36542;51.700;8.846;2024-02-14T10:57:29;10.50;99.90
50586;DHT22;36542;51.700;8.846;2024-02-14T10:59:55;10.50;99.90
50586;DHT22;36542;51.700;8.846;2024-02-14T11:02:23;10.40;99.90
50586;DHT22;36542;51.700;8.846;2024-02-14T11:04:49;10.30;99.90
50586;DHT22;36542;51.700;8.846;2024-02-14T11:07:19;10.30;99.90
50586;DHT22;36542;51.700;8.846;2024-02-14T11:09:45;10.40;99.90
50586;DHT22;36542;51.700;8.846;2024-02-14T11:12:11;10.30;99.90
50586;DHT22;36542;51.700;8.846;2024-02-14T11:14:37;10.20;99.90
50586;DHT22;36542;51.700;8.846;2024-02-14T11:17:13;10.20;99.90
50586;DHT22;36542;51.700;8.846;2024-02-14T11:19:39;10.20;99.90
50586;DHT22;36542;51.700;8.846;2024-02-14T11:22:16;10.20;99.90
50586;DHT22;36542;51.700;8.846;2024-02-14T11:24:48;10.20;99.90
50586;DHT22;36542;51.700;8.846;2024-02-14T11:27:14;10.20;99.90
50586;DHT22;36542;51.700;8.846;2024-02-14T11:29:53;10.30;99.90
50586;DHT22;36542;51.700;8.846;2024-02-14T11:32:18;10.30;99.90
50586;DHT22;36542;51.700;8.846;2024-02-14T11:34:53;10.30;99.90
50586;DHT22;36542;51.700;8.846;2024-02-14T11:37:20;10.30;99.90
50586;DHT22;36542;51.700;8.846;2024-02-14T11:39:49;10.30;99.90
50586;DHT22;36542;51.700;8.846;2024-02-14T11:42:14;10.40;99.90
50586;DHT22;36542;51.700;8.846;2024-02-14T11:44:40;10.40;99.90
50586;DHT22;36542;51.700;8.846;2024-02-14T11:47:09;10.50;99.90
50586;DHT22;36542;51.700;8.846;2024-02-14T11:49:36;10.50;99.90
50586;DHT22;36542;51.700;8.846;2024-02-14T11:52:02;10.50;99.90
50586;DHT22;36542;51.700;8.846;2024-02-14T11:54:29;10.50;99.90
50586;DHT22;36542;51.700;8.846;2024-02-14T11:56:55;10.40;99.90
50586;DHT22;36542;51.700;8.846;2024-02-14T11:59:21;10.20;99.90
50586;DHT22;36542;51.700;8.846;2024-02-14T12:01:48;10.20;99.90
50586;DHT22;36542;51.700;8.846;2024-02-14T12:04:17;10.10;99.90
50586;DHT22;36542;51.700;8.846;2024-02-14T12:06:43;10.20;99.90
50586;DHT22;36542;51.700;8.846;2024-02-14T12:09:09;10.10;99.90
50586;DHT22;36542;51.700;8.846;2024-02-14T12:11:39;10.00;99.90
50586;DHT22;36542;51.700;8.846;2024-02-14T12:14:08;10.00;99.90
50586;DHT22;36542;51.700;8.846;2024-02-14T12:16:35;10.00;99.90
50586;DHT22;36542;51.700;8.846;2024-02-14T12:19:23;9.90;99.90
50586;DHT22;36542;51.700;8.846;2024-02-14T12:21:49;9.90;99.90
50586;DHT22;36542;51.700;8.846;2024-02-14T12:24:14;9.90;99.90
50586;DHT22;36542;51.700;8.846;2024-02-14T12:26:41;9.90;99.90
50586;DHT22;36542;51.700;8.846;2024-02-14T12:29:08;10.00;99.90
50586;DHT22;36542;51.700;8.846;2024-02-14T12:31:34;10.00;99.90
50586;DHT22;36542;51.700;8.846;2024-02-14T12:34:02;10.00;99.90
50586;DHT22;36542;51.700;8.846;2024-02-14T12:36:34;10.00;99.90
50586;DHT22;36542;51.700;8.846;2024-02-14T12:39:00;9.90;99.90
50586;DHT22;36542;51.700;8.846;2024-02-14T12:41:30;9.90;99.90
50586;DHT22;36542;51.700;8.846;2024-02-14T12:43:56;9.90;99.90
50586;DHT22;36542;51.700;8.846;2024-02-14T12:46:22;10.00;99.90
50586;DHT22;36542;51.700;8.846;2024-02-14T12:48:48;9.90;99.90
50586;DHT22;36542;51.700;8.846;2024-02-14T12:51:14;9.90;99.90
50586;DHT22;36542;51.700;8.846;2024-02-14T12:53:40;9.90;99.90
50586;DHT22;36542;51.700;8.846;2024-02-14T12:56:06;9.90;99.90
50586;DHT22;36542;51.700;8.846;2024-02-14T12:58:32;10.00;99.90
50586;DHT22;36542;51.700;8.846;2024-02-14T13:00:59;10.00;99.90
50586;DHT22;36542;51.700;8.846;2024-02-14T13:03:26;10.00;99.90
50586;DHT22;36542;51.700;8.846;2024-02-14T13:05:53;10.10;99.90
50586;DHT22;36542;51.700;8.846;2024-02-14T13:08:21;10.10;99.90
50586;DHT22;36542;51.700;8.846;2024-02-14T13:10:48;10.20;99.90
50586;DHT22;36542;51.700;8.846;2024-02-14T13:13:14;10.20;99.90
50586;DHT22;36542;51.700;8.846;2024-02-14T13:15:40;10.20;99.90
50586;DHT22;36542;51.700;8.846;2024-02-14T13:18:07;10.20;99.90
50586;DHT22;36542;51.700;8.846;2024-02-14T13:20:33;10.20;99.90
50586;DHT22;36542;51.700;8.846;2024-02-14T13:22:58;10.20;99.90
50586;DHT22;36542;51.700;8.846;2024-02-14T13:25:24;10.10;99.90
50586;DHT22;36542;51.700;8.846;2024-02-14T13:27:50;10.10;99.90
50586;DHT22;36542;51.700;8.846;2024-02-14T13:30:15;10.20;99.90
50586;DHT22;36542;51.700;8.846;2024-02-14T13:32:41;10.20;99.90
50586;DHT22;36542;51.700;8.846;2024-02-14T13:35:07;10.20;99.90
50586;DHT22;36542;51.700;8.846;2024-02-14T13:37:33;10.30;99.90
50586;DHT22;36542;51.700;8.846;2024-02-14T13:39:59;10.30;99.90
50586;DHT22;36542;51.700;8.846;2024-02-14T13:42:24;10.30;99.90
50586;DHT22;36542;51.700;8.846;2024-02-14T13:44:50;10.40;99.90
50586;DHT22;36542;51.700;8.846;2024-02-14T13:47:18;10.50;99.90
50586;DHT22;36542;51.700;8.846;2024-02-14T13:49:44;10.50;99.90
50586;DHT22;36542;51.700;8.846;2024-02-14T13:52:10;10.60;99.90
50586;DHT22;36542;51.700;8.846;2024-02-14T13:54:35;10.60;99.90
50586;DHT22;36542;51.700;8.846;2024-02-14T13:57:01;10.60;99.90
50586;DHT22;36542;51.700;8.846;2024-02-14T13:59:28;10.60;99.90
50586;DHT22;36542;51.700;8.846;2024-02-14T14:01:53;10.70;99.90
50586;DHT22;36542;51.700;8.846;2024-02-14T14:04:19;10.70;99.90
50586;DHT22;36542;51.700;8.846;2024-02-14T14:06:46;10.70;99.90
50586;DHT22;36542;51.700;8.846;2024-02-14T14:09:13;10.70;99.90
50586;DHT22;36542;51.700;8.846;2024-02-14T14:11:38;10.70;99.90
50586;DHT22;36542;51.700;8.846;2024-02-14T14:14:04;10.70;99.90
50586;DHT22;36542;51.700;8.846;2024-02-14T14:16:31;10.70;99.90
50586;DHT22;36542;51.700;8.846;2024-02-14T14:18:58;10.70;99.90
50586;DHT22;36542;51.700;8.846;2024-02-14T14:21:24;10.60;99.90
50586;DHT22;36542;51.700;8.846;2024-02-14T14:23:50;10.70;99.90
50586;DHT22;36542;51.700;8.846;2024-02-14T14:26:15;10.70;99.90
50586;DHT22;36542;51.700;8.846;2024-02-14T14:28:41;10.70;99.90
50586;DHT22;36542;51.700;8.846;2024-02-14T14:31:08;10.70;99.90
50586;DHT22;36542;51.700;8.846;2024-02-14T14:33:36;10.70;99.90
50586;DHT22;36542;51.700;8.846;2024-02-14T14:36:04;10.70;99.90
50586;DHT22;36542;51.700;8.846;2024-02-14T14:38:29;10.70;99.90
50586;DHT22;36542;51.700;8.846;2024-02-14T14:40:56;10.70;99.90
50586;DHT22;36542;51.700;8.846;2024-02-14T14:43:22;10.80;99.90
50586;DHT22;36542;51.700;8.846;2024-02-14T14:45:47;10.80;99.90
50586;DHT22;36542;51.700;8.846;2024-02-14T14:48:14;10.80;99.90
50586;DHT22;36542;51.700;8.846;2024-02-14T14:50:40;10.90;99.90
50586;DHT22;36542;51.700;8.846;2024-02-14T14:53:06;11.00;99.90
50586;DHT22;36542;51.700;8.846;2024-02-14T14:55:54;11.00;99.90
50586;DHT22;36542;51.700;8.846;2024-02-14T14:58:23;11.00;99.90
50586;DHT22;36542;51.700;8.846;2024-02-14T15:00:56;11.10;99.90
50586;DHT22;36542;51.700;8.846;2024-02-14T15:03:23;11.10;99.90
50586;DHT22;36542;51.700;8.846;2024-02-14T15:05:48;11.10;99.90
50586;DHT22;36542;51.700;8.846;2024-02-14T15:08:15;11.10;99.90
50586;DHT22;36542;51.700;8.846;2024-02-14T15:10:43;11.10;99.90
50586;DHT22;36542;51.700;8.846;2024-02-14T15:13:09;11.10;99.90
50586;DHT22;36542;51.700;8.846;2024-02-14T15:15:35;11.00;99.90
50586;DHT22;36542;51.700;8.846;2024-02-14T15:18:02;11.00;99.90
50586;DHT22;36542;51.700;8.846;2024-02-14T15:20:27;11.00;99.90
50586;DHT22;36542;51.700;8.846;2024-02-14T15:22:53;11.00;99.90
50586;DHT22;36542;51.700;8.846;2024-02-14T15:25:19;10.90;99.90
50586;DHT22;36542;51.700;8.846;2024-02-14T15:27:45;10.90;99.90
50586;DHT22;36542;51.700;8.846;2024-02-14T15:30:24;10.80;99.90
50586;DHT22;36542;51.700;8.846;2024-02-14T15:33:09;10.80;99.90
50586;DHT22;36542;51.700;8.846;2024-02-14T15:35:51;10.70;99.90